sensor_id;sensor_type;location;lat;lon;timestamp;pressure;altitude;pressure_sealevel;temperature;humidity
76590;BME280;65471;55.908;37.880;2023-10-08T00:00:33;96368.72;;;5.11;91.76
76590;BME280;65471;55.908;37.880;2023-10-08T00:03:13;96383.13;;;5.15;91.65
76590;BME280;65471;55.908;37.880;2023-10-08T00:05:41;96378.59;;;5.16;91.60
76590;BME280;65471;55.908;37.880;2023-10-08T00:08:08;96372.13;;;5.17;91.50
76590;BME280;65471;55.908;37.880;2023-10-08T00:10:39;96377.22;;;5.18;91.35
76590;BME280;65471;55.908;37.880;2023-10-08T00:13:08;96375.63;;;5.17;91.30
76590;BME280;65471;55.908;37.880;2023-10-08T00:15:36;96386.84;;;5.19;91.12
76590;BME280;65471;55.908;37.880;2023-10-08T00:18:04;96366.22;;;5.20;91.14
76590;BME280;65471;55.908;37.880;2023-10-08T00:20:34;96380.94;;;5.23;90.97
76590;BME280;65471;55.908;37.880;2023-10-08T00:23:22;96369.44;;;5.22;90.33
76590;BME280;65471;55.908;37.880;2023-10-08T00:25:53;96372.91;;;5.23;90.74
76590;BME280;65471;55.908;37.880;2023-10-08T00:28:22;96387.09;;;5.23;90.57
76590;BME280;65471;55.908;37.880;2023-10-08T00:30:49;96369.44;;;5.22;90.34
76590;BME280;65471;55.908;37.880;2023-10-08T00:33:16;96368.66;;;5.22;89.64
76590;BME280;65471;55.908;37.880;2023-10-08T00:35:43;96373.44;;;5.25;89.20
76590;BME280;65471;55.908;37.880;2023-10-08T00:38:11;96364.28;;;5.26;89.03
76590;BME280;65471;55.908;37.880;2023-10-08T00:40:42;96364.06;;;5.22;89.09
76590;BME280;65471;55.908;37.880;2023-10-08T00:43:34;96377.19;;;5.24;88.98
76590;BME280;65471;55.908;37.880;2023-10-08T00:46:06;96360.31;;;5.23;88.82
76590;BME280;65471;55.908;37.880;2023-10-08T00:48:53;96357.38;;;5.25;88.13
76590;BME280;65471;55.908;37.880;2023-10-08T00:51:24;96353.34;;;5.27;87.59
76590;BME280;65471;55.908;37.880;2023-10-08T00:54:08;96355.19;;;5.27;87.05
76590;BME280;65471;55.908;37.880;2023-10-08T00:56:37;96358.94;;;5.26;87.16
76590;BME280;65471;55.908;37.880;2023-10-08T00:59:12;96368.06;;;5.25;87.33
76590;BME280;65471;55.908;37.880;2023-10-08T01:01:45;96356.00;;;5.27;86.82
76590;BME280;65471;55.908;37.880;2023-10-08T01:04:22;96379.28;;;5.27;86.68
76590;BME280;65471;55.908;37.880;2023-10-08T01:06:51;96367.25;;;5.24;85.70
76590;BME280;65471;55.908;37.880;2023-10-08T01:09:22;96368.88;;;5.25;85.39
76590;BME280;65471;55.908;37.880;2023-10-08T01:12:19;96369.94;;;5.24;85.16
76590;BME280;65471;55.908;37.880;2023-10-08T01:15:01;96378.22;;;5.28;85.18
76590;BME280;65471;55.908;37.880;2023-10-08T01:17:43;96378.78;;;5.25;84.97
76590;BME280;65471;55.908;37.880;2023-10-08T01:20:30;96372.91;;;5.23;85.09
76590;BME280;65471;55.908;37.880;2023-10-08T01:23:02;96378.53;;;5.21;85.33
76590;BME280;65471;55.908;37.880;2023-10-08T01:25:44;96377.50;;;5.17;85.34
76590;BME280;65471;55.908;37.880;2023-10-08T01:28:30;96404.34;;;5.12;85.57
76590;BME280;65471;55.908;37.880;2023-10-08T01:30:59;96376.81;;;5.06;85.27
76590;BME280;65471;55.908;37.880;2023-10-08T01:33:31;96368.00;;;5.00;85.18
76590;BME280;65471;55.908;37.880;2023-10-08T01:35:58;96386.00;;;4.95;85.07
76590;BME280;65471;55.908;37.880;2023-10-08T01:38:31;96381.19;;;4.92;85.28
76590;BME280;65471;55.908;37.880;2023-10-08T01:40:59;96376.38;;;4.89;85.57
76590;BME280;65471;55.908;37.880;2023-10-08T01:43:32;96372.13;;;4.88;85.32
76590;BME280;65471;55.908;37.880;2023-10-08T01:46:02;96368.41;;;4.83;85.40
76590;BME280;65471;55.908;37.880;2023-10-08T01:48:30;96359.81;;;4.81;85.64
76590;BME280;65471;55.908;37.880;2023-10-08T01:51:04;96367.56;;;4.83;85.92
76590;BME280;65471;55.908;37.880;2023-10-08T01:53:36;96368.41;;;4.83;85.78
76590;BME280;65471;55.908;37.880;2023-10-08T01:56:04;96363.84;;;4.84;85.75
76590;BME280;65471;55.908;37.880;2023-10-08T01:58:31;96378.03;;;4.84;85.63
76590;BME280;65471;55.908;37.880;2023-10-08T02:01:00;96379.34;;;4.87;85.72
76590;BME280;65471;55.908;37.880;2023-10-08T02:03:27;96374.78;;;4.88;85.51
76590;BME280;65471;55.908;37.880;2023-10-08T02:05:54;96371.56;;;4.91;84.67
76590;BME280;65471;55.908;37.880;2023-10-08T02:08:25;96377.41;;;4.93;84.08
76590;BME280;65471;55.908;37.880;2023-10-08T02:10:58;96373.66;;;4.94;84.05
76590;BME280;65471;55.908;37.880;2023-10-08T02:13:26;96363.25;;;4.92;84.08
76590;BME280;65471;55.908;37.880;2023-10-08T02:15:53;96368.59;;;4.92;83.97
76590;BME280;65471;55.908;37.880;2023-10-08T02:18:20;96371.00;;;4.94;83.82
76590;BME280;65471;55.908;37.880;2023-10-08T02:20:50;96382.75;;;4.98;83.44
76590;BME280;65471;55.908;37.880;2023-10-08T02:23:18;96376.84;;;4.96;83.25
76590;BME280;65471;55.908;37.880;2023-10-08T02:25:45;96378.75;;;4.95;82.91
76590;BME280;65471;55.908;37.880;2023-10-08T02:28:12;96377.97;;;4.95;83.14
76590;BME280;65471;55.908;37.880;2023-10-08T02:30:42;96373.41;;;4.90;83.05
76590;BME280;65471;55.908;37.880;2023-10-08T02:33:09;96380.94;;;4.88;83.21
76590;BME280;65471;55.908;37.880;2023-10-08T02:35:44;96378.56;;;4.81;83.18
76590;BME280;65471;55.908;37.880;2023-10-08T02:38:13;96370.88;;;4.75;83.92
76590;BME280;65471;55.908;37.880;2023-10-08T02:40:43;96382.09;;;4.72;84.48
76590;BME280;65471;55.908;37.880;2023-10-08T02:43:17;96367.16;;;4.65;84.59
76590;BME280;65471;55.908;37.880;2023-10-08T02:45:45;96376.03;;;4.61;84.78
76590;BME280;65471;55.908;37.880;2023-10-08T02:48:16;96378.16;;;4.59;85.49
76590;BME280;65471;55.908;37.880;2023-10-08T02:50:45;96369.63;;;4.57;85.65
76590;BME280;65471;55.908;37.880;2023-10-08T02:53:12;96369.13;;;4.55;85.81
76590;BME280;65471;55.908;37.880;2023-10-08T02:55:45;96368.84;;;4.56;85.88
76590;BME280;65471;55.908;37.880;2023-10-08T02:58:14;96372.06;;;4.53;85.77
76590;BME280;65471;55.908;37.880;2023-10-08T03:00:43;96365.63;;;4.54;85.26
76590;BME280;65471;55.908;37.880;2023-10-08T03:03:10;96359.50;;;4.54;85.00
76590;BME280;65471;55.908;37.880;2023-10-08T03:08:14;96377.09;;;4.60;84.61
76590;BME280;65471;55.908;37.880;2023-10-08T03:10:49;96364.78;;;4.59;84.21
76590;BME280;65471;55.908;37.880;2023-10-08T03:13:17;96380.84;;;4.59;83.60
76590;BME280;65471;55.908;37.880;2023-10-08T03:15:46;96378.72;;;4.61;83.26
76590;BME280;65471;55.908;37.880;2023-10-08T03:18:29;96372.28;;;4.62;83.16
76590;BME280;65471;55.908;37.880;2023-10-08T03:21:09;96374.16;;;4.61;82.49
76590;BME280;65471;55.908;37.880;2023-10-08T03:24:03;96366.66;;;4.63;82.31
76590;BME280;65471;55.908;37.880;2023-10-08T03:26:38;96361.88;;;4.60;81.88
76590;BME280;65471;55.908;37.880;2023-10-08T03:29:11;96367.44;;;4.64;82.02
76590;BME280;65471;55.908;37.880;2023-10-08T03:31:42;96364.50;;;4.65;82.12
76590;BME280;65471;55.908;37.880;2023-10-08T03:34:16;96362.13;;;4.59;82.49
76590;BME280;65471;55.908;37.880;2023-10-08T03:36:46;96359.44;;;4.59;82.22
76590;BME280;65471;55.908;37.880;2023-10-08T03:39:14;96370.16;;;4.59;82.08
76590;BME280;65471;55.908;37.880;2023-10-08T03:41:41;96366.97;;;4.57;82.21
76590;BME280;65471;55.908;37.880;2023-10-08T03:44:09;96371.53;;;4.56;82.58
76590;BME280;65471;55.908;37.880;2023-10-08T03:46:43;96360.00;;;4.56;82.48
76590;BME280;65471;55.908;37.880;2023-10-08T03:49:13;96366.16;;;4.56;82.46
76590;BME280;65471;55.908;37.880;2023-10-08T03:51:50;96373.66;;;4.54;82.34
76590;BME280;65471;55.908;37.880;2023-10-08T03:54:20;96370.97;;;4.54;82.53
76590;BME280;65471;55.908;37.880;2023-10-08T03:57:00;96372.88;;;4.48;83.05
76590;BME280;65471;55.908;37.880;2023-10-08T03:59:28;96366.50;;;4.44;83.41
76590;BME280;65471;55.908;37.880;2023-10-08T04:01:55;96382.03;;;4.42;83.72
76590;BME280;65471;55.908;37.880;2023-10-08T04:04:25;96366.25;;;4.41;83.73
76590;BME280;65471;55.908;37.880;2023-10-08T04:07:12;96375.13;;;4.36;84.56
76590;BME280;65471;55.908;37.880;2023-10-08T04:09:57;96363.38;;;4.32;84.79
76590;BME280;65471;55.908;37.880;2023-10-08T04:12:37;96381.00;;;4.33;84.98
76590;BME280;65471;55.908;37.880;2023-10-08T04:15:08;96391.19;;;4.31;84.85
76590;BME280;65471;55.908;37.880;2023-10-08T04:17:35;96370.34;;;4.28;85.29
76590;BME280;65471;55.908;37.880;2023-10-08T04:20:13;96370.06;;;4.24;86.13
76590;BME280;65471;55.908;37.880;2023-10-08T04:23:01;96381.59;;;4.20;86.56
76590;BME280;65471;55.908;37.880;2023-10-08T04:25:29;96382.94;;;4.17;86.77
76590;BME280;65471;55.908;37.880;2023-10-08T04:27:57;96382.94;;;4.17;86.90
76590;BME280;65471;55.908;37.880;2023-10-08T04:30:32;96386.44;;;4.18;87.04
76590;BME280;65471;55.908;37.880;2023-10-08T04:33:00;96384.53;;;4.18;87.12
76590;BME280;65471;55.908;37.880;2023-10-08T04:35:34;96394.47;;;4.12;87.92
76590;BME280;65471;55.908;37.880;2023-10-08T04:38:15;96385.16;;;4.05;88.47
76590;BME280;65471;55.908;37.880;2023-10-08T04:40:45;96381.41;;;4.01;88.73
76590;BME280;65471;55.908;37.880;2023-10-08T04:43:15;96379.53;;;4.01;88.90
76590;BME280;65471;55.908;37.880;2023-10-08T04:45:49;96381.94;;;3.97;89.20
76590;BME280;65471;55.908;37.880;2023-10-08T04:48:16;96377.69;;;3.96;89.55
76590;BME280;65471;55.908;37.880;2023-10-08T04:50:48;96382.75;;;3.98;89.27
76590;BME280;65471;55.908;37.880;2023-10-08T04:53:27;96383.31;;;3.95;89.38
76590;BME280;65471;55.908;37.880;2023-10-08T04:56:08;96382.53;;;3.89;89.86
76590;BME280;65471;55.908;37.880;2023-10-08T04:58:47;96390.00;;;3.87;89.82
76590;BME280;65471;55.908;37.880;2023-10-08T05:01:18;96390.00;;;3.87;89.86
76590;BME280;65471;55.908;37.880;2023-10-08T05:03:48;96390.81;;;3.88;89.97
76590;BME280;65471;55.908;37.880;2023-10-08T05:06:29;96387.31;;;3.87;89.91
76590;BME280;65471;55.908;37.880;2023-10-08T05:09:12;96398.84;;;3.88;90.01
76590;BME280;65471;55.908;37.880;2023-10-08T05:11:49;96381.72;;;3.89;90.03
76590;BME280;65471;55.908;37.880;2023-10-08T05:14:23;96398.84;;;3.88;90.14
76590;BME280;65471;55.908;37.880;2023-10-08T05:17:02;96401.22;;;3.89;90.03
76590;BME280;65471;55.908;37.880;2023-10-08T05:19:39;96394.00;;;3.90;89.89
76590;BME280;65471;55.908;37.880;2023-10-08T05:22:11;96392.41;;;3.89;89.46
76590;BME280;65471;55.908;37.880;2023-10-08T05:24:54;96391.06;;;3.91;89.10
76590;BME280;65471;55.908;37.880;2023-10-08T05:27:38;96400.94;;;3.96;89.01
76590;BME280;65471;55.908;37.880;2023-10-08T05:30:26;96399.63;;;3.93;89.09
76590;BME280;65471;55.908;37.880;2023-10-08T05:33:05;96399.06;;;3.96;89.26
76590;BME280;65471;55.908;37.880;2023-10-08T05:35:36;96401.75;;;3.96;88.99
76590;BME280;65471;55.908;37.880;2023-10-08T05:38:14;96405.22;;;3.97;88.45
76590;BME280;65471;55.908;37.880;2023-10-08T05:40:58;96393.97;;;4.00;88.01
76590;BME280;65471;55.908;37.880;2023-10-08T05:43:30;96386.50;;;4.02;87.79
76590;BME280;65471;55.908;37.880;2023-10-08T05:46:05;96402.75;;;4.06;87.67
76590;BME280;65471;55.908;37.880;2023-10-08T05:51:32;96388.31;;;4.12;86.51
76590;BME280;65471;55.908;37.880;2023-10-08T05:54:24;96393.91;;;4.10;86.89
76590;BME280;65471;55.908;37.880;2023-10-08T05:57:05;96399.25;;;4.10;86.28
76590;BME280;65471;55.908;37.880;2023-10-08T05:59:45;96409.72;;;4.12;85.10
76590;BME280;65471;55.908;37.880;2023-10-08T06:02:31;96404.09;;;4.08;85.35
76590;BME280;65471;55.908;37.880;2023-10-08T06:05:07;96393.13;;;4.10;85.03
76590;BME280;65471;55.908;37.880;2023-10-08T06:07:49;96401.41;;;4.13;84.84
76590;BME280;65471;55.908;37.880;2023-10-08T06:13:04;96392.31;;;4.14;84.16
76590;BME280;65471;55.908;37.880;2023-10-08T06:15:43;96397.38;;;4.16;83.93
76590;BME280;65471;55.908;37.880;2023-10-08T06:18:15;96405.16;;;4.18;83.78
76590;BME280;65471;55.908;37.880;2023-10-08T06:20:49;96416.63;;;4.18;82.91
76590;BME280;65471;55.908;37.880;2023-10-08T06:23:22;96412.91;;;4.19;82.50
76590;BME280;65471;55.908;37.880;2023-10-08T06:25:53;96418.75;;;4.21;82.68
76590;BME280;65471;55.908;37.880;2023-10-08T06:28:23;96422.22;;;4.22;82.91
76590;BME280;65471;55.908;37.880;2023-10-08T06:30:55;96417.94;;;4.26;82.72
76590;BME280;65471;55.908;37.880;2023-10-08T06:33:24;96409.34;;;4.29;82.83
76590;BME280;65471;55.908;37.880;2023-10-08T06:35:53;96410.69;;;4.31;83.08
76590;BME280;65471;55.908;37.880;2023-10-08T06:38:45;96418.72;;;4.31;83.17
76590;BME280;65471;55.908;37.880;2023-10-08T06:41:16;96411.22;;;4.34;82.57
76590;BME280;65471;55.908;37.880;2023-10-08T06:44:04;96417.06;;;4.41;81.75
76590;BME280;65471;55.908;37.880;2023-10-08T06:46:41;96421.34;;;4.42;81.66
76590;BME280;65471;55.908;37.880;2023-10-08T06:49:09;96425.06;;;4.46;82.14
76590;BME280;65471;55.908;37.880;2023-10-08T06:51:41;96425.31;;;4.49;82.40
76590;BME280;65471;55.908;37.880;2023-10-08T06:54:10;96422.09;;;4.53;82.55
76590;BME280;65471;55.908;37.880;2023-10-08T06:56:41;96427.97;;;4.55;81.44
76590;BME280;65471;55.908;37.880;2023-10-08T06:59:14;96424.78;;;4.53;81.02
76590;BME280;65471;55.908;37.880;2023-10-08T07:01:43;96423.16;;;4.52;80.92
76590;BME280;65471;55.908;37.880;2023-10-08T07:04:13;96427.72;;;4.56;81.28
76590;BME280;65471;55.908;37.880;2023-10-08T07:06:42;96433.34;;;4.55;80.54
76590;BME280;65471;55.908;37.880;2023-10-08T07:09:11;96426.13;;;4.50;79.16
76590;BME280;65471;55.908;37.880;2023-10-08T07:11:53;96437.09;;;4.48;78.85
76590;BME280;65471;55.908;37.880;2023-10-08T07:14:25;96433.09;;;4.46;79.26
76590;BME280;65471;55.908;37.880;2023-10-08T07:16:58;96440.31;;;4.45;79.74
76590;BME280;65471;55.908;37.880;2023-10-08T07:19:30;96445.66;;;4.45;79.79
76590;BME280;65471;55.908;37.880;2023-10-08T07:22:07;96429.91;;;4.44;79.63
76590;BME280;65471;55.908;37.880;2023-10-08T07:24:45;96446.22;;;4.42;79.36
76590;BME280;65471;55.908;37.880;2023-10-08T07:27:12;96445.66;;;4.45;79.17
76590;BME280;65471;55.908;37.880;2023-10-08T07:29:40;96460.34;;;4.53;79.44
76590;BME280;65471;55.908;37.880;2023-10-08T07:32:07;96449.91;;;4.52;78.61
76590;BME280;65471;55.908;37.880;2023-10-08T07:34:38;96445.09;;;4.54;77.79
76590;BME280;65471;55.908;37.880;2023-10-08T07:37:05;96448.84;;;4.53;78.07
76590;BME280;65471;55.908;37.880;2023-10-08T07:39:32;96450.19;;;4.50;78.11
76590;BME280;65471;55.908;37.880;2023-10-08T07:42:03;96453.13;;;4.48;77.56
76590;BME280;65471;55.908;37.880;2023-10-08T07:44:35;96453.13;;;4.48;78.11
76590;BME280;65471;55.908;37.880;2023-10-08T07:47:08;96456.88;;;4.53;78.15
76590;BME280;65471;55.908;37.880;2023-10-08T07:49:39;96471.91;;;4.43;77.42
76590;BME280;65471;55.908;37.880;2023-10-08T07:52:06;96470.34;;;4.32;77.77
76590;BME280;65471;55.908;37.880;2023-10-08T07:54:33;96456.19;;;4.26;78.95
76590;BME280;65471;55.908;37.880;2023-10-08T07:57:02;96466.88;;;4.26;79.12
76590;BME280;65471;55.908;37.880;2023-10-08T07:59:40;96461.81;;;4.25;79.32
76590;BME280;65471;55.908;37.880;2023-10-08T08:02:15;96470.91;;;4.24;79.75
76590;BME280;65471;55.908;37.880;2023-10-08T08:04:43;96481.56;;;4.29;79.83
76590;BME280;65471;55.908;37.880;2023-10-08T08:07:12;96480.50;;;4.35;80.31
76590;BME280;65471;55.908;37.880;2023-10-08T08:09:43;96471.34;;;4.46;79.98
76590;BME280;65471;55.908;37.880;2023-10-08T08:12:31;96474.00;;;4.52;79.74
76590;BME280;65471;55.908;37.880;2023-10-08T08:15:01;96474.53;;;4.54;79.38
76590;BME280;65471;55.908;37.880;2023-10-08T08:17:42;96472.91;;;4.58;78.89
76590;BME280;65471;55.908;37.880;2023-10-08T08:20:10;96486.25;;;4.63;78.52
76590;BME280;65471;55.908;37.880;2023-10-08T08:22:48;96496.16;;;4.62;78.51
76590;BME280;65471;55.908;37.880;2023-10-08T08:25:21;96494.28;;;4.68;78.07
76590;BME280;65471;55.908;37.880;2023-10-08T08:28:01;96495.06;;;4.69;77.99
76590;BME280;65471;55.908;37.880;2023-10-08T08:30:28;96493.75;;;4.66;77.64
76590;BME280;65471;55.908;37.880;2023-10-08T08:32:55;96483.56;;;4.63;78.49
76590;BME280;65471;55.908;37.880;2023-10-08T08:35:23;96503.91;;;4.64;78.64
76590;BME280;65471;55.908;37.880;2023-10-08T08:37:51;96507.13;;;4.66;78.42
76590;BME280;65471;55.908;37.880;2023-10-08T08:40:20;96507.38;;;4.70;78.68
76590;BME280;65471;55.908;37.880;2023-10-08T08:42:51;96498.84;;;4.68;77.85
76590;BME280;65471;55.908;37.880;2023-10-08T08:45:25;96517.56;;;4.62;77.29
76590;BME280;65471;55.908;37.880;2023-10-08T08:47:53;96521.59;;;4.60;77.10
76590;BME280;65471;55.908;37.880;2023-10-08T08:50:21;96499.63;;;4.63;76.61
76590;BME280;65471;55.908;37.880;2023-10-08T08:52:48;96520.50;;;4.66;76.89
76590;BME280;65471;55.908;37.880;2023-10-08T08:55:19;96509.22;;;4.74;76.36
76590;BME280;65471;55.908;37.880;2023-10-08T08:57:48;96498.75;;;4.83;76.09
76590;BME280;65471;55.908;37.880;2023-10-08T09:00:17;96509.97;;;4.85;76.96
76590;BME280;65471;55.908;37.880;2023-10-08T09:02:45;96511.59;;;4.81;76.01
76590;BME280;65471;55.908;37.880;2023-10-08T09:05:15;96515.38;;;4.75;75.94
76590;BME280;65471;55.908;37.880;2023-10-08T09:07:59;96526.34;;;4.78;76.37
76590;BME280;65471;55.908;37.880;2023-10-08T09:10:31;96515.66;;;4.73;76.42
76590;BME280;65471;55.908;37.880;2023-10-08T09:13:05;96518.59;;;4.77;75.95
76590;BME280;65471;55.908;37.880;2023-10-08T09:15:34;96525.00;;;4.81;75.67
76590;BME280;65471;55.908;37.880;2023-10-08T09:18:03;96518.56;;;4.82;74.71
76590;BME280;65471;55.908;37.880;2023-10-08T09:20:34;96517.75;;;4.81;75.51
76590;BME280;65471;55.908;37.880;2023-10-08T09:23:07;96516.19;;;4.75;74.68
76590;BME280;65471;55.908;37.880;2023-10-08T09:25:34;96531.22;;;4.66;73.28
76590;BME280;65471;55.908;37.880;2023-10-08T09:28:02;96533.34;;;4.64;73.79
76590;BME280;65471;55.908;37.880;2023-10-08T09:30:32;96528.53;;;4.66;74.40
76590;BME280;65471;55.908;37.880;2023-10-08T09:33:08;96536.03;;;4.64;73.74
76590;BME280;65471;55.908;37.880;2023-10-08T09:35:35;96523.19;;;4.61;73.55
76590;BME280;65471;55.908;37.880;2023-10-08T09:38:04;96541.38;;;4.64;73.89
76590;BME280;65471;55.908;37.880;2023-10-08T09:40:31;96557.72;;;4.62;74.04
76590;BME280;65471;55.908;37.880;2023-10-08T09:42:59;96538.72;;;4.59;74.70
76590;BME280;65471;55.908;37.880;2023-10-08T09:45:26;96539.28;;;4.51;75.35
76590;BME280;65471;55.908;37.880;2023-10-08T09:47:55;96550.00;;;4.40;75.10
76590;BME280;65471;55.908;37.880;2023-10-08T09:50:28;96550.81;;;4.41;76.14
76590;BME280;65471;55.908;37.880;2023-10-08T09:53:10;96553.50;;;4.41;76.15
76590;BME280;65471;55.908;37.880;2023-10-08T09:55:46;96553.22;;;4.42;76.00
76590;BME280;65471;55.908;37.880;2023-10-08T09:58:16;96551.38;;;4.38;77.03
76590;BME280;65471;55.908;37.880;2023-10-08T10:00:44;96555.94;;;4.32;77.29
76590;BME280;65471;55.908;37.880;2023-10-08T10:03:16;96554.59;;;4.29;77.39
76590;BME280;65471;55.908;37.880;2023-10-08T10:05:48;96547.63;;;4.34;78.07
76590;BME280;65471;55.908;37.880;2023-10-08T10:08:15;96560.72;;;4.35;78.35
76590;BME280;65471;55.908;37.880;2023-10-08T10:10:42;96556.16;;;4.36;77.68
76590;BME280;65471;55.908;37.880;2023-10-08T10:13:16;96558.31;;;4.34;77.92
76590;BME280;65471;55.908;37.880;2023-10-08T10:15:44;96563.94;;;4.27;77.93
76590;BME280;65471;55.908;37.880;2023-10-08T10:18:27;96554.31;;;4.31;78.41
76590;BME280;65471;55.908;37.880;2023-10-08T10:20:59;96576.25;;;4.28;77.92
76590;BME280;65471;55.908;37.880;2023-10-08T10:23:37;96569.28;;;4.22;77.48
76590;BME280;65471;55.908;37.880;2023-10-08T10:29:25;96584.84;;;3.94;78.74
76590;BME280;65471;55.908;37.880;2023-10-08T10:31:54;96585.66;;;3.89;79.36
76590;BME280;65471;55.908;37.880;2023-10-08T10:34:27;96588.59;;;3.88;80.93
76590;BME280;65471;55.908;37.880;2023-10-08T10:36:56;96586.44;;;3.90;82.07
76590;BME280;65471;55.908;37.880;2023-10-08T10:39:26;96593.41;;;3.91;82.06
76590;BME280;65471;55.908;37.880;2023-10-08T10:41:57;96594.97;;;3.92;81.99
76590;BME280;65471;55.908;37.880;2023-10-08T10:44:24;96593.91;;;3.93;82.39
76590;BME280;65471;55.908;37.880;2023-10-08T10:46:52;96594.75;;;3.93;82.44
76590;BME280;65471;55.908;37.880;2023-10-08T10:49:38;96591.78;;;3.95;83.19
76590;BME280;65471;55.908;37.880;2023-10-08T10:52:29;96588.56;;;3.93;82.97
76590;BME280;65471;55.908;37.880;2023-10-08T10:55:03;96601.41;;;3.91;82.76
76590;BME280;65471;55.908;37.880;2023-10-08T10:57:43;96597.66;;;3.92;82.52
76590;BME280;65471;55.908;37.880;2023-10-08T11:00:11;96604.59;;;3.93;82.67
76590;BME280;65471;55.908;37.880;2023-10-08T11:02:57;96593.94;;;3.88;83.56
76590;BME280;65471;55.908;37.880;2023-10-08T11:05:30;96598.22;;;3.84;82.96
76590;BME280;65471;55.908;37.880;2023-10-08T11:07:59;96603.56;;;3.84;82.73
76590;BME280;65471;55.908;37.880;2023-10-08T11:10:37;96606.75;;;3.86;83.48
76590;BME280;65471;55.908;37.880;2023-10-08T11:13:06;96605.13;;;3.85;83.16
76590;BME280;65471;55.908;37.880;2023-10-08T11:15:45;96611.56;;;3.89;83.29
76590;BME280;65471;55.908;37.880;2023-10-08T11:18:18;96614.75;;;3.96;83.08
76590;BME280;65471;55.908;37.880;2023-10-08T11:20:46;96612.38;;;4.00;83.15
76590;BME280;65471;55.908;37.880;2023-10-08T11:23:41;96605.69;;;3.97;82.60
76590;BME280;65471;55.908;37.880;2023-10-08T11:26:09;96607.00;;;3.94;82.37
76590;BME280;65471;55.908;37.880;2023-10-08T11:28:37;96605.94;;;3.90;82.71
76590;BME280;65471;55.908;37.880;2023-10-08T11:31:15;96615.56;;;3.86;83.07
76590;BME280;65471;55.908;37.880;2023-10-08T11:33:47;96607.00;;;3.79;83.28
76590;BME280;65471;55.908;37.880;2023-10-08T11:36:22;96612.09;;;3.75;83.32
76590;BME280;65471;55.908;37.880;2023-10-08T11:38:57;96606.19;;;3.73;83.24
76590;BME280;65471;55.908;37.880;2023-10-08T11:41:34;96598.72;;;3.75;83.55
76590;BME280;65471;55.908;37.880;2023-10-08T11:44:16;96605.94;;;3.75;84.20
76590;BME280;65471;55.908;37.880;2023-10-08T11:46:46;96612.09;;;3.65;83.70
76590;BME280;65471;55.908;37.880;2023-10-08T11:49:18;96606.72;;;3.60;83.61
76590;BME280;65471;55.908;37.880;2023-10-08T11:51:46;96615.53;;;3.55;84.05
76590;BME280;65471;55.908;37.880;2023-10-08T11:54:13;96616.59;;;3.54;83.90
76590;BME280;65471;55.908;37.880;2023-10-08T11:56:41;96606.72;;;3.50;83.68
76590;BME280;65471;55.908;37.880;2023-10-08T11:59:08;96608.31;;;3.45;83.06
76590;BME280;65471;55.908;37.880;2023-10-08T12:01:36;96608.31;;;3.51;83.38
76590;BME280;65471;55.908;37.880;2023-10-08T12:04:04;96604.81;;;3.50;83.40
76590;BME280;65471;55.908;37.880;2023-10-08T12:06:32;96610.44;;;3.49;83.78
76590;BME280;65471;55.908;37.880;2023-10-08T12:08:59;96608.56;;;3.49;84.40
76590;BME280;65471;55.908;37.880;2023-10-08T12:11:27;96617.38;;;3.50;84.82
76590;BME280;65471;55.908;37.880;2023-10-08T12:13:58;96611.22;;;3.49;84.93
76590;BME280;65471;55.908;37.880;2023-10-08T12:16:27;96625.94;;;3.47;85.12
76590;BME280;65471;55.908;37.880;2023-10-08T12:18:57;96612.03;;;3.44;85.63
76590;BME280;65471;55.908;37.880;2023-10-08T12:21:26;96621.66;;;3.45;85.87
76590;BME280;65471;55.908;37.880;2023-10-08T12:24:00;96614.72;;;3.39;85.64
76590;BME280;65471;55.908;37.880;2023-10-08T12:26:31;96624.84;;;3.42;85.80
76590;BME280;65471;55.908;37.880;2023-10-08T12:28:58;96617.63;;;3.38;86.05
76590;BME280;65471;55.908;37.880;2023-10-08T12:31:27;96628.03;;;3.34;86.29
76590;BME280;65471;55.908;37.880;2023-10-08T12:33:56;96622.97;;;3.38;86.28
76590;BME280;65471;55.908;37.880;2023-10-08T12:36:27;96618.44;;;3.38;86.44
76590;BME280;65471;55.908;37.880;2023-10-08T12:38:59;96622.97;;;3.38;86.21
76590;BME280;65471;55.908;37.880;2023-10-08T12:41:26;96629.66;;;3.35;86.53
76590;BME280;65471;55.908;37.880;2023-10-08T12:43:53;96630.69;;;3.29;86.08
76590;BME280;65471;55.908;37.880;2023-10-08T12:46:21;96622.94;;;3.27;86.32
76590;BME280;65471;55.908;37.880;2023-10-08T12:48:52;96618.66;;;3.21;86.12
76590;BME280;65471;55.908;37.880;2023-10-08T12:51:22;96610.91;;;3.20;86.58
76590;BME280;65471;55.908;37.880;2023-10-08T12:53:53;96635.19;;;3.18;86.72
76590;BME280;65471;55.908;37.880;2023-10-08T12:56:31;96611.13;;;3.13;86.45
76590;BME280;65471;55.908;37.880;2023-10-08T12:59:12;96614.63;;;3.14;86.63
76590;BME280;65471;55.908;37.880;2023-10-08T13:01:50;96618.09;;;3.14;87.32
76590;BME280;65471;55.908;37.880;2023-10-08T13:04:18;96626.63;;;3.11;87.37
76590;BME280;65471;55.908;37.880;2023-10-08T13:06:54;96619.94;;;3.08;87.22
76590;BME280;65471;55.908;37.880;2023-10-08T13:09:24;96625.81;;;3.10;87.21
76590;BME280;65471;55.908;37.880;2023-10-08T13:11:52;96625.00;;;3.10;87.28
76590;BME280;65471;55.908;37.880;2023-10-08T13:14:19;96630.66;;;3.14;87.75
76590;BME280;65471;55.908;37.880;2023-10-08T13:16:49;96624.75;;;3.11;87.77
76590;BME280;65471;55.908;37.880;2023-10-08T13:19:21;96624.22;;;3.09;87.42
76590;BME280;65471;55.908;37.880;2023-10-08T13:21:51;96627.38;;;3.06;87.71
76590;BME280;65471;55.908;37.880;2023-10-08T13:24:19;96619.91;;;2.98;87.83
76590;BME280;65471;55.908;37.880;2023-10-08T13:26:50;96635.88;;;2.93;88.05
76590;BME280;65471;55.908;37.880;2023-10-08T13:29:17;96631.34;;;2.88;87.91
76590;BME280;65471;55.908;37.880;2023-10-08T13:31:45;96626.25;;;2.87;88.51
76590;BME280;65471;55.908;37.880;2023-10-08T13:34:13;96635.84;;;2.88;88.69
76590;BME280;65471;55.908;37.880;2023-10-08T13:36:43;96635.56;;;2.84;89.03
76590;BME280;65471;55.908;37.880;2023-10-08T13:39:14;96640.91;;;2.84;88.79